sensor_id;sensor_type;location;lat;lon;timestamp;P1;durP1;ratioP1;P2;durP2;ratioP2
76818;SDS011;65772;51.096;17.006;2024-02-15T00:02:00;11.40;;;7.30;;
76818;SDS011;65772;51.096;17.006;2024-02-15T00:04:30;12.30;;;6.80;;
76818;SDS011;65772;51.096;17.006;2024-02-15T00:07:01;13.50;;;7.20;;
76818;SDS011;65772;51.096;17.006;2024-02-15T00:09:32;14.80;;;7.30;;
76818;SDS011;65772;51.096;17.006;2024-02-15T00:12:03;14.50;;;7.70;;
76818;SDS011;65772;51.096;17.006;2024-02-15T00:14:36;12.00;;;7.10;;
76818;SDS011;65772;51.096;17.006;2024-02-15T00:17:07;12.10;;;7.90;;
76818;SDS011;65772;51.096;17.006;2024-02-15T00:19:39;13.20;;;7.50;;
76818;SDS011;65772;51.096;17.006;2024-02-15T00:22:10;14.10;;;8.50;;
76818;SDS011;65772;51.096;17.006;2024-02-15T00:24:41;14.70;;;7.70;;
76818;SDS011;65772;51.096;17.006;2024-02-15T00:27:13;13.50;;;8.30;;
76818;SDS011;65772;51.096;17.006;2024-02-15T00:29:44;13.00;;;7.80;;
76818;SDS011;65772;51.096;17.006;2024-02-15T00:32:15;14.50;;;7.70;;
76818;SDS011;65772;51.096;17.006;2024-02-15T00:34:46;11.60;;;7.30;;
76818;SDS011;65772;51.096;17.006;2024-02-15T00:37:17;14.70;;;7.80;;
76818;SDS011;65772;51.096;17.006;2024-02-15T00:39:48;17.10;;;8.30;;
76818;SDS011;65772;51.096;17.006;2024-02-15T00:42:18;18.80;;;8.70;;
76818;SDS011;65772;51.096;17.006;2024-02-15T00:44:49;14.60;;;7.90;;
76818;SDS011;65772;51.096;17.006;2024-02-15T00:47:20;15.00;;;8.10;;
76818;SDS011;65772;51.096;17.006;2024-02-15T00:49:50;19.40;;;9.60;;
76818;SDS011;65772;51.096;17.006;2024-02-15T00:52:21;17.60;;;9.00;;
76818;SDS011;65772;51.096;17.006;2024-02-15T00:54:53;17.50;;;9.10;;
76818;SDS011;65772;51.096;17.006;2024-02-15T00:57:24;17.00;;;8.70;;
76818;SDS011;65772;51.096;17.006;2024-02-15T00:59:54;15.80;;;8.70;;
76818;SDS011;65772;51.096;17.006;2024-02-15T01:02:25;18.50;;;9.00;;
76818;SDS011;65772;51.096;17.006;2024-02-15T01:04:57;18.90;;;9.60;;
76818;SDS011;65772;51.096;17.006;2024-02-15T01:07:27;16.80;;;8.60;;
76818;SDS011;65772;51.096;17.006;2024-02-15T01:09:58;16.50;;;9.00;;
76818;SDS011;65772;51.096;17.006;2024-02-15T01:12:29;16.40;;;8.90;;
76818;SDS011;65772;51.096;17.006;2024-02-15T01:14:59;15.10;;;8.80;;
76818;SDS011;65772;51.096;17.006;2024-02-15T01:17:30;16.80;;;9.30;;
76818;SDS011;65772;51.096;17.006;2024-02-15T01:20:01;15.90;;;9.00;;
76818;SDS011;65772;51.096;17.006;2024-02-15T01:22:34;17.60;;;9.80;;
76818;SDS011;65772;51.096;17.006;2024-02-15T01:25:05;16.40;;;8.80;;
76818;SDS011;65772;51.096;17.006;2024-02-15T01:27:36;15.20;;;8.50;;
76818;SDS011;65772;51.096;17.006;2024-02-15T01:30:09;14.80;;;8.70;;
76818;SDS011;65772;51.096;17.006;2024-02-15T01:32:41;15.80;;;8.50;;
76818;SDS011;65772;51.096;17.006;2024-02-15T01:35:11;15.00;;;8.60;;
76818;SDS011;65772;51.096;17.006;2024-02-15T01:37:42;15.40;;;9.30;;
76818;SDS011;65772;51.096;17.006;2024-02-15T01:40:13;15.40;;;9.00;;
76818;SDS011;65772;51.096;17.006;2024-02-15T01:42:45;14.30;;;9.20;;
76818;SDS011;65772;51.096;17.006;2024-02-15T01:45:17;16.20;;;8.50;;
76818;SDS011;65772;51.096;17.006;2024-02-15T01:47:49;15.60;;;9.10;;
76818;SDS011;65772;51.096;17.006;2024-02-15T01:50:20;17.80;;;9.30;;
76818;SDS011;65772;51.096;17.006;2024-02-15T01:52:52;16.10;;;8.50;;
76818;SDS011;65772;51.096;17.006;2024-02-15T01:55:24;15.50;;;9.00;;
76818;SDS011;65772;51.096;17.006;2024-02-15T01:57:55;18.70;;;10.00;;
76818;SDS011;65772;51.096;17.006;2024-02-15T02:00:27;18.40;;;10.00;;
76818;SDS011;65772;51.096;17.006;2024-02-15T02:02:59;18.00;;;9.70;;
76818;SDS011;65772;51.096;17.006;2024-02-15T02:05:34;16.50;;;9.50;;
76818;SDS011;65772;51.096;17.006;2024-02-15T02:08:06;14.40;;;8.90;;
76818;SDS011;65772;51.096;17.006;2024-02-15T02:10:37;17.30;;;9.90;;
76818;SDS011;65772;51.096;17.006;2024-02-15T02:13:09;15.20;;;9.30;;
76818;SDS011;65772;51.096;17.006;2024-02-15T02:15:40;14.20;;;8.20;;
76818;SDS011;65772;51.096;17.006;2024-02-15T02:18:11;14.50;;;8.70;;
76818;SDS011;65772;51.096;17.006;2024-02-15T02:20:42;14.80;;;9.10;;
76818;SDS011;65772;51.096;17.006;2024-02-15T02:23:14;14.50;;;8.70;;
76818;SDS011;65772;51.096;17.006;2024-02-15T02:25:46;16.40;;;9.00;;
76818;SDS011;65772;51.096;17.006;2024-02-15T02:28:17;16.80;;;8.40;;
76818;SDS011;65772;51.096;17.006;2024-02-15T02:30:49;13.10;;;7.90;;
76818;SDS011;65772;51.096;17.006;2024-02-15T02:33:20;15.10;;;8.60;;
76818;SDS011;65772;51.096;17.006;2024-02-15T02:35:53;14.50;;;7.90;;
76818;SDS011;65772;51.096;17.006;2024-02-15T02:38:25;15.20;;;8.10;;
76818;SDS011;65772;51.096;17.006;2024-02-15T02:40:56;13.40;;;8.20;;
76818;SDS011;65772;51.096;17.006;2024-02-15T02:43:26;15.40;;;8.70;;
76818;SDS011;65772;51.096;17.006;2024-02-15T02:45:57;19.40;;;8.70;;
76818;SDS011;65772;51.096;17.006;2024-02-15T02:48:28;14.60;;;8.10;;
76818;SDS011;65772;51.096;17.006;2024-02-15T02:50:59;14.90;;;8.10;;
76818;SDS011;65772;51.096;17.006;2024-02-15T02:53:30;16.70;;;8.20;;
76818;SDS011;65772;51.096;17.006;2024-02-15T02:56:01;16.80;;;8.70;;
76818;SDS011;65772;51.096;17.006;2024-02-15T02:58:32;15.60;;;8.80;;
76818;SDS011;65772;51.096;17.006;2024-02-15T03:01:03;15.40;;;8.50;;
76818;SDS011;65772;51.096;17.006;2024-02-15T03:03:34;14.70;;;8.30;;
76818;SDS011;65772;51.096;17.006;2024-02-15T03:06:06;16.70;;;8.50;;
76818;SDS011;65772;51.096;17.006;2024-02-15T03:08:36;14.20;;;7.70;;
76818;SDS011;65772;51.096;17.006;2024-02-15T03:11:07;16.90;;;8.30;;
76818;SDS011;65772;51.096;17.006;2024-02-15T03:13:38;11.90;;;6.80;;
76818;SDS011;65772;51.096;17.006;2024-02-15T03:16:10;13.70;;;7.60;;
76818;SDS011;65772;51.096;17.006;2024-02-15T03:18:40;12.90;;;7.10;;
76818;SDS011;65772;51.096;17.006;2024-02-15T03:21:11;13.00;;;7.30;;
76818;SDS011;65772;51.096;17.006;2024-02-15T03:23:42;13.40;;;7.90;;
76818;SDS011;65772;51.096;17.006;2024-02-15T03:26:13;13.00;;;7.50;;
76818;SDS011;65772;51.096;17.006;2024-02-15T03:28:44;11.50;;;6.90;;
76818;SDS011;65772;51.096;17.006;2024-02-15T03:31:15;10.40;;;6.90;;
76818;SDS011;65772;51.096;17.006;2024-02-15T03:33:46;12.50;;;7.00;;
76818;SDS011;65772;51.096;17.006;2024-02-15T03:36:17;12.00;;;6.90;;
76818;SDS011;65772;51.096;17.006;2024-02-15T03:38:49;11.70;;;6.90;;
76818;SDS011;65772;51.096;17.006;2024-02-15T03:41:22;11.60;;;6.90;;
76818;SDS011;65772;51.096;17.006;2024-02-15T03:43:55;11.80;;;6.50;;
76818;SDS011;65772;51.096;17.006;2024-02-15T03:48:57;15.50;;;7.00;;
76818;SDS011;65772;51.096;17.006;2024-02-15T03:51:27;12.60;;;6.90;;
76818;SDS011;65772;51.096;17.006;2024-02-15T03:54:00;12.70;;;7.20;;
76818;SDS011;65772;51.096;17.006;2024-02-15T03:56:31;10.40;;;6.70;;
76818;SDS011;65772;51.096;17.006;2024-02-15T03:59:02;10.70;;;6.60;;
76818;SDS011;65772;51.096;17.006;2024-02-15T04:01:33;12.70;;;6.80;;
76818;SDS011;65772;51.096;17.006;2024-02-15T04:04:04;11.00;;;6.70;;
76818;SDS011;65772;51.096;17.006;2024-02-15T04:06:34;12.40;;;6.50;;
76818;SDS011;65772;51.096;17.006;2024-02-15T04:09:08;10.60;;;6.50;;
76818;SDS011;65772;51.096;17.006;2024-02-15T04:11:39;11.80;;;6.60;;
76818;SDS011;65772;51.096;17.006;2024-02-15T04:14:10;9.80;;;6.30;;
76818;SDS011;65772;51.096;17.006;2024-02-15T04:16:40;11.00;;;6.70;;
76818;SDS011;65772;51.096;17.006;2024-02-15T04:19:11;10.50;;;6.60;;
76818;SDS011;65772;51.096;17.006;2024-02-15T04:21:42;10.90;;;6.80;;
76818;SDS011;65772;51.096;17.006;2024-02-15T04:24:12;12.40;;;6.70;;
76818;SDS011;65772;51.096;17.006;2024-02-15T04:26:43;11.20;;;6.50;;
76818;SDS011;65772;51.096;17.006;2024-02-15T04:29:16;10.00;;;6.50;;
76818;SDS011;65772;51.096;17.006;2024-02-15T04:31:48;10.50;;;7.00;;
76818;SDS011;65772;51.096;17.006;2024-02-15T04:34:18;11.70;;;6.80;;
76818;SDS011;65772;51.096;17.006;2024-02-15T04:36:50;10.50;;;6.50;;
76818;SDS011;65772;51.096;17.006;2024-02-15T04:39:23;10.40;;;6.50;;
76818;SDS011;65772;51.096;17.006;2024-02-15T04:41:57;9.50;;;6.70;;
76818;SDS011;65772;51.096;17.006;2024-02-15T04:44:28;9.40;;;6.20;;
76818;SDS011;65772;51.096;17.006;2024-02-15T04:47:03;8.80;;;6.00;;
76818;SDS011;65772;51.096;17.006;2024-02-15T04:49:34;10.10;;;6.40;;
76818;SDS011;65772;51.096;17.006;2024-02-15T04:52:06;11.60;;;6.70;;
76818;SDS011;65772;51.096;17.006;2024-02-15T04:54:37;10.50;;;6.60;;
76818;SDS011;65772;51.096;17.006;2024-02-15T04:57:07;10.10;;;6.10;;
76818;SDS011;65772;51.096;17.006;2024-02-15T04:59:40;11.20;;;7.10;;
76818;SDS011;65772;51.096;17.006;2024-02-15T05:02:16;12.30;;;6.50;;
76818;SDS011;65772;51.096;17.006;2024-02-15T05:04:47;10.60;;;6.20;;
76818;SDS011;65772;51.096;17.006;2024-02-15T05:07:23;13.60;;;7.10;;
76818;SDS011;65772;51.096;17.006;2024-02-15T05:09:54;9.70;;;6.70;;
76818;SDS011;65772;51.096;17.006;2024-02-15T05:12:25;9.40;;;6.30;;
76818;SDS011;65772;51.096;17.006;2024-02-15T05:14:55;11.20;;;7.10;;
76818;SDS011;65772;51.096;17.006;2024-02-15T05:17:26;9.90;;;6.80;;
76818;SDS011;65772;51.096;17.006;2024-02-15T05:19:57;9.80;;;6.90;;
76818;SDS011;65772;51.096;17.006;2024-02-15T05:22:28;12.60;;;7.00;;
76818;SDS011;65772;51.096;17.006;2024-02-15T05:25:00;10.20;;;6.40;;
76818;SDS011;65772;51.096;17.006;2024-02-15T05:27:33;10.90;;;6.70;;
76818;SDS011;65772;51.096;17.006;2024-02-15T05:30:05;12.90;;;6.70;;
76818;SDS011;65772;51.096;17.006;2024-02-15T05:32:39;12.10;;;7.00;;
76818;SDS011;65772;51.096;17.006;2024-02-15T05:35:12;10.50;;;6.90;;
76818;SDS011;65772;51.096;17.006;2024-02-15T05:37:43;10.40;;;6.80;;
76818;SDS011;65772;51.096;17.006;2024-02-15T05:40:14;12.30;;;7.80;;
76818;SDS011;65772;51.096;17.006;2024-02-15T05:42:45;14.10;;;7.40;;
76818;SDS011;65772;51.096;17.006;2024-02-15T05:45:30;11.40;;;7.50;;
76818;SDS011;65772;51.096;17.006;2024-02-15T05:48:07;11.30;;;6.50;;
76818;SDS011;65772;51.096;17.006;2024-02-15T05:50:40;10.50;;;6.80;;
76818;SDS011;65772;51.096;17.006;2024-02-15T05:53:11;11.80;;;7.70;;
76818;SDS011;65772;51.096;17.006;2024-02-15T05:55:42;11.40;;;6.90;;
76818;SDS011;65772;51.096;17.006;2024-02-15T05:58:13;13.00;;;8.10;;
76818;SDS011;65772;51.096;17.006;2024-02-15T06:00:44;10.90;;;7.00;;
76818;SDS011;65772;51.096;17.006;2024-02-15T06:03:17;12.70;;;7.40;;
76818;SDS011;65772;51.096;17.006;2024-02-15T06:05:50;10.00;;;7.00;;
76818;SDS011;65772;51.096;17.006;2024-02-15T06:08:26;12.40;;;7.40;;
76818;SDS011;65772;51.096;17.006;2024-02-15T06:10:58;12.00;;;7.00;;
76818;SDS011;65772;51.096;17.006;2024-02-15T06:13:30;11.10;;;7.50;;
76818;SDS011;65772;51.096;17.006;2024-02-15T06:16:01;15.40;;;7.80;;
76818;SDS011;65772;51.096;17.006;2024-02-15T06:18:37;14.30;;;7.90;;
76818;SDS011;65772;51.096;17.006;2024-02-15T06:21:08;12.70;;;8.20;;
76818;SDS011;65772;51.096;17.006;2024-02-15T06:23:39;16.90;;;8.40;;
76818;SDS011;65772;51.096;17.006;2024-02-15T06:26:09;12.80;;;8.20;;
76818;SDS011;65772;51.096;17.006;2024-02-15T06:28:40;12.00;;;8.10;;
76818;SDS011;65772;51.096;17.006;2024-02-15T06:31:29;16.50;;;8.60;;
76818;SDS011;65772;51.096;17.006;2024-02-15T06:34:15;14.40;;;8.50;;
76818;SDS011;65772;51.096;17.006;2024-02-15T06:37:03;13.10;;;7.90;;
76818;SDS011;65772;51.096;17.006;2024-02-15T06:39:52;12.60;;;7.70;;
76818;SDS011;65772;51.096;17.006;2024-02-15T06:42:22;11.10;;;7.90;;
76818;SDS011;65772;51.096;17.006;2024-02-15T06:44:54;13.00;;;7.40;;
76818;SDS011;65772;51.096;17.006;2024-02-15T06:47:25;13.30;;;7.80;;
76818;SDS011;65772;51.096;17.006;2024-02-15T06:49:56;14.40;;;8.10;;
76818;SDS011;65772;51.096;17.006;2024-02-15T06:52:27;13.10;;;7.70;;
76818;SDS011;65772;51.096;17.006;2024-02-15T06:54:58;14.10;;;8.30;;
76818;SDS011;65772;51.096;17.006;2024-02-15T06:57:28;13.80;;;8.10;;
76818;SDS011;65772;51.096;17.006;2024-02-15T06:59:59;12.10;;;7.80;;
76818;SDS011;65772;51.096;17.006;2024-02-15T07:02:30;15.20;;;8.40;;
76818;SDS011;65772;51.096;17.006;2024-02-15T07:05:01;14.70;;;8.30;;
76818;SDS011;65772;51.096;17.006;2024-02-15T07:07:32;11.70;;;8.40;;
76818;SDS011;65772;51.096;17.006;2024-02-15T07:10:02;12.90;;;8.00;;
76818;SDS011;65772;51.096;17.006;2024-02-15T07:12:34;13.10;;;7.50;;
76818;SDS011;65772;51.096;17.006;2024-02-15T07:15:06;12.50;;;8.40;;
76818;SDS011;65772;51.096;17.006;2024-02-15T07:17:37;14.20;;;7.80;;
76818;SDS011;65772;51.096;17.006;2024-02-15T07:20:10;14.60;;;7.60;;
76818;SDS011;65772;51.096;17.006;2024-02-15T07:22:45;13.60;;;8.10;;
76818;SDS011;65772;51.096;17.006;2024-02-15T07:25:15;12.60;;;7.50;;
76818;SDS011;65772;51.096;17.006;2024-02-15T07:27:46;15.50;;;8.60;;
76818;SDS011;65772;51.096;17.006;2024-02-15T07:30:17;11.50;;;7.60;;
76818;SDS011;65772;51.096;17.006;2024-02-15T07:32:52;16.50;;;8.20;;
76818;SDS011;65772;51.096;17.006;2024-02-15T07:35:23;12.70;;;6.90;;
76818;SDS011;65772;51.096;17.006;2024-02-15T07:37:54;15.40;;;7.40;;
76818;SDS011;65772;51.096;17.006;2024-02-15T07:40:26;11.10;;;6.50;;
76818;SDS011;65772;51.096;17.006;2024-02-15T07:42:57;14.10;;;7.70;;
76818;SDS011;65772;51.096;17.006;2024-02-15T07:45:28;13.10;;;7.40;;
76818;SDS011;65772;51.096;17.006;2024-02-15T07:48:00;14.30;;;8.20;;
76818;SDS011;65772;51.096;17.006;2024-02-15T07:50:32;15.00;;;7.50;;
76818;SDS011;65772;51.096;17.006;2024-02-15T07:53:05;16.20;;;7.20;;
76818;SDS011;65772;51.096;17.006;2024-02-15T07:55:38;12.70;;;7.30;;
76818;SDS011;65772;51.096;17.006;2024-02-15T07:58:09;13.50;;;7.50;;
76818;SDS011;65772;51.096;17.006;2024-02-15T08:00:41;17.10;;;7.70;;
76818;SDS011;65772;51.096;17.006;2024-02-15T08:03:12;15.70;;;7.70;;
76818;SDS011;65772;51.096;17.006;2024-02-15T08:05:43;11.80;;;7.20;;
76818;SDS011;65772;51.096;17.006;2024-02-15T08:08:15;12.50;;;7.10;;
76818;SDS011;65772;51.096;17.006;2024-02-15T08:10:46;17.10;;;7.40;;
76818;SDS011;65772;51.096;17.006;2024-02-15T08:13:19;12.70;;;7.60;;
76818;SDS011;65772;51.096;17.006;2024-02-15T08:15:56;15.40;;;8.00;;
76818;SDS011;65772;51.096;17.006;2024-02-15T08:18:26;12.90;;;7.40;;
76818;SDS011;65772;51.096;17.006;2024-02-15T08:20:58;15.20;;;8.30;;
76818;SDS011;65772;51.096;17.006;2024-02-15T08:23:28;21.80;;;9.00;;
76818;SDS011;65772;51.096;17.006;2024-02-15T08:26:00;16.10;;;7.80;;
76818;SDS011;65772;51.096;17.006;2024-02-15T08:28:31;15.20;;;8.20;;
76818;SDS011;65772;51.096;17.006;2024-02-15T08:31:02;13.00;;;8.10;;
76818;SDS011;65772;51.096;17.006;2024-02-15T08:33:33;15.40;;;8.30;;
76818;SDS011;65772;51.096;17.006;2024-02-15T08:36:06;17.10;;;8.70;;
76818;SDS011;65772;51.096;17.006;2024-02-15T08:38:38;14.70;;;8.90;;
76818;SDS011;65772;51.096;17.006;2024-02-15T08:41:11;14.00;;;8.30;;
76818;SDS011;65772;51.096;17.006;2024-02-15T08:43:42;16.60;;;8.80;;
76818;SDS011;65772;51.096;17.006;2024-02-15T08:46:16;16.90;;;8.80;;
76818;SDS011;65772;51.096;17.006;2024-02-15T08:48:47;14.50;;;8.60;;
76818;SDS011;65772;51.096;17.006;2024-02-15T08:51:18;17.30;;;8.00;;
76818;SDS011;65772;51.096;17.006;2024-02-15T08:53:52;13.30;;;7.80;;
76818;SDS011;65772;51.096;17.006;2024-02-15T08:56:25;12.30;;;7.50;;
76818;SDS011;65772;51.096;17.006;2024-02-15T08:58:56;15.50;;;7.90;;
76818;SDS011;65772;51.096;17.006;2024-02-15T09:01:31;12.90;;;7.80;;
76818;SDS011;65772;51.096;17.006;2024-02-15T09:04:03;12.40;;;7.20;;
76818;SDS011;65772;51.096;17.006;2024-02-15T09:06:34;11.70;;;7.60;;
76818;SDS011;65772;51.096;17.006;2024-02-15T09:09:05;11.70;;;7.20;;
76818;SDS011;65772;51.096;17.006;2024-02-15T09:11:36;13.90;;;7.50;;
76818;SDS011;65772;51.096;17.006;2024-02-15T09:14:07;12.80;;;7.30;;
76818;SDS011;65772;51.096;17.006;2024-02-15T09:16:38;14.60;;;7.50;;
76818;SDS011;65772;51.096;17.006;2024-02-15T09:19:09;12.90;;;7.20;;
76818;SDS011;65772;51.096;17.006;2024-02-15T09:21:40;13.20;;;7.00;;
76818;SDS011;65772;51.096;17.006;2024-02-15T09:24:10;12.60;;;7.30;;
76818;SDS011;65772;51.096;17.006;2024-02-15T09:26:44;13.60;;;7.10;;
76818;SDS011;65772;51.096;17.006;2024-02-15T09:29:14;13.30;;;7.80;;
76818;SDS011;65772;51.096;17.006;2024-02-15T09:31:45;13.10;;;7.00;;
76818;SDS011;65772;51.096;17.006;2024-02-15T09:34:16;11.70;;;7.00;;
76818;SDS011;65772;51.096;17.006;2024-02-15T09:36:47;11.70;;;6.60;;
76818;SDS011;65772;51.096;17.006;2024-02-15T09:39:18;12.30;;;6.70;;
76818;SDS011;65772;51.096;17.006;2024-02-15T09:41:51;11.70;;;6.40;;
76818;SDS011;65772;51.096;17.006;2024-02-15T09:44:26;11.60;;;7.10;;
76818;SDS011;65772;51.096;17.006;2024-02-15T09:47:01;11.10;;;6.50;;
76818;SDS011;65772;51.096;17.006;2024-02-15T09:49:35;10.00;;;6.40;;
76818;SDS011;65772;51.096;17.006;2024-02-15T09:52:08;11.70;;;6.40;;
76818;SDS011;65772;51.096;17.006;2024-02-15T09:54:43;10.60;;;6.20;;
76818;SDS011;65772;51.096;17.006;2024-02-15T09:57:15;9.90;;;5.90;;
76818;SDS011;65772;51.096;17.006;2024-02-15T09:59:48;12.40;;;6.70;;
76818;SDS011;65772;51.096;17.006;2024-02-15T10:02:20;12.50;;;6.30;;
76818;SDS011;65772;51.096;17.006;2024-02-15T10:04:51;12.90;;;6.50;;
76818;SDS011;65772;51.096;17.006;2024-02-15T10:07:25;11.00;;;6.20;;
76818;SDS011;65772;51.096;17.006;2024-02-15T10:09:56;11.70;;;6.40;;
76818;SDS011;65772;51.096;17.006;2024-02-15T10:12:44;14.00;;;7.60;;
76818;SDS011;65772;51.096;17.006;2024-02-15T10:15:28;17.30;;;6.80;;
76818;SDS011;65772;51.096;17.006;2024-02-15T10:18:05;12.80;;;7.10;;
76818;SDS011;65772;51.096;17.006;2024-02-15T10:20:38;14.50;;;7.50;;
76818;SDS011;65772;51.096;17.006;2024-02-15T10:23:13;12.30;;;7.10;;
76818;SDS011;65772;51.096;17.006;2024-02-15T10:25:46;12.70;;;5.70;;
76818;SDS011;65772;51.096;17.006;2024-02-15T10:28:21;11.20;;;6.30;;
76818;SDS011;65772;51.096;17.006;2024-02-15T10:30:52;10.80;;;5.90;;
76818;SDS011;65772;51.096;17.006;2024-02-15T10:33:26;12.10;;;6.10;;
76818;SDS011;65772;51.096;17.006;2024-02-15T10:36:06;12.00;;;6.50;;
76818;SDS011;65772;51.096;17.006;2024-02-15T10:38:39;12.60;;;6.00;;
76818;SDS011;65772;51.096;17.006;2024-02-15T10:41:10;10.90;;;6.00;;
76818;SDS011;65772;51.096;17.006;2024-02-15T10:43:42;11.30;;;6.40;;
76818;SDS011;65772;51.096;17.006;2024-02-15T10:46:15;10.00;;;5.90;;
76818;SDS011;65772;51.096;17.006;2024-02-15T10:48:47;11.50;;;6.10;;
76818;SDS011;65772;51.096;17.006;2024-02-15T10:51:18;8.50;;;5.20;;
76818;SDS011;65772;51.096;17.006;2024-02-15T10:53:51;10.90;;;4.80;;
76818;SDS011;65772;51.096;17.006;2024-02-15T10:56:34;11.50;;;5.30;;
76818;SDS011;65772;51.096;17.006;2024-02-15T11:01:46;10.30;;;5.10;;
76818;SDS011;65772;51.096;17.006;2024-02-15T11:04:19;9.40;;;5.00;;
76818;SDS011;65772;51.096;17.006;2024-02-15T11:06:53;10.70;;;5.80;;
76818;SDS011;65772;51.096;17.006;2024-02-15T11:09:25;10.20;;;4.90;;
76818;SDS011;65772;51.096;17.006;2024-02-15T11:11:57;7.70;;;4.50;;
76818;SDS011;65772;51.096;17.006;2024-02-15T11:14:29;7.40;;;4.30;;
76818;SDS011;65772;51.096;17.006;2024-02-15T11:17:02;7.50;;;3.80;;
76818;SDS011;65772;51.096;17.006;2024-02-15T11:19:41;7.20;;;4.10;;
76818;SDS011;65772;51.096;17.006;2024-02-15T11:22:16;7.80;;;4.30;;
76818;SDS011;65772;51.096;17.006;2024-02-15T11:24:47;6.80;;;3.90;;
76818;SDS011;65772;51.096;17.006;2024-02-15T11:27:27;9.00;;;4.20;;
76818;SDS011;65772;51.096;17.006;2024-02-15T11:30:00;7.60;;;4.30;;
76818;SDS011;65772;51.096;17.006;2024-02-15T11:32:36;8.30;;;3.80;;
76818;SDS011;65772;51.096;17.006;2024-02-15T11:35:12;6.10;;;3.70;;
76818;SDS011;65772;51.096;17.006;2024-02-15T11:37:51;8.30;;;3.70;;
76818;SDS011;65772;51.096;17.006;2024-02-15T11:40:24;8.40;;;4.20;;
76818;SDS011;65772;51.096;17.006;2024-02-15T11:42:57;7.00;;;3.70;;
76818;SDS011;65772;51.096;17.006;2024-02-15T11:45:29;20.90;;;11.70;;
76818;SDS011;65772;51.096;17.006;2024-02-15T11:48:07;7.80;;;4.80;;
76818;SDS011;65772;51.096;17.006;2024-02-15T11:50:40;9.10;;;4.20;;
76818;SDS011;65772;51.096;17.006;2024-02-15T11:53:12;8.70;;;4.20;;
76818;SDS011;65772;51.096;17.006;2024-02-15T11:55:44;7.60;;;4.00;;
76818;SDS011;65772;51.096;17.006;2024-02-15T11:58:16;7.30;;;3.50;;
76818;SDS011;65772;51.096;17.006;2024-02-15T12:00:59;6.80;;;3.50;;
76818;SDS011;65772;51.096;17.006;2024-02-15T12:03:49;6.40;;;3.00;;
76818;SDS011;65772;51.096;17.006;2024-02-15T12:06:41;7.70;;;2.80;;
76818;SDS011;65772;51.096;17.006;2024-02-15T12:09:30;5.80;;;3.30;;
76818;SDS011;65772;51.096;17.006;2024-02-15T12:12:18;8.60;;;2.90;;
76818;SDS011;65772;51.096;17.006;2024-02-15T12:15:15;5.00;;;2.50;;
76818;SDS011;65772;51.096;17.006;2024-02-15T12:18:17;4.80;;;2.30;;
76818;SDS011;65772;51.096;17.006;2024-02-15T12:21:06;5.50;;;3.40;;
76818;SDS011;65772;51.096;17.006;2024-02-15T12:23:38;7.50;;;3.00;;
76818;SDS011;65772;51.096;17.006;2024-02-15T12:26:10;5.90;;;3.10;;
76818;SDS011;65772;51.096;17.006;2024-02-15T12:28:42;4.60;;;2.60;;
76818;SDS011;65772;51.096;17.006;2024-02-15T12:31:16;5.60;;;2.80;;
76818;SDS011;65772;51.096;17.006;2024-02-15T12:33:47;6.80;;;3.30;;
76818;SDS011;65772;51.096;17.006;2024-02-15T12:36:29;6.10;;;3.00;;
76818;SDS011;65772;51.096;17.006;2024-02-15T12:39:01;6.30;;;3.20;;
76818;SDS011;65772;51.096;17.006;2024-02-15T12:44:09;6.20;;;2.80;;
76818;SDS011;65772;51.096;17.006;2024-02-15T12:46:40;10.00;;;4.50;;
76818;SDS011;65772;51.096;17.006;2024-02-15T12:49:17;6.70;;;3.40;;
76818;SDS011;65772;51.096;17.006;2024-02-15T12:55:08;6.50;;;3.20;;
76818;SDS011;65772;51.096;17.006;2024-02-15T12:57:41;6.50;;;3.30;;
76818;SDS011;65772;51.096;17.006;2024-02-15T13:00:20;6.60;;;3.60;;
76818;SDS011;65772;51.096;17.006;2024-02-15T13:02:57;7.70;;;3.30;;
76818;SDS011;65772;51.096;17.006;2024-02-15T13:05:31;7.00;;;3.00;;
76818;SDS011;65772;51.096;17.006;2024-02-15T13:08:04;6.60;;;3.50;;
76818;SDS011;65772;51.096;17.006;2024-02-15T13:10:42;8.80;;;3.40;;
76818;SDS011;65772;51.096;17.006;2024-02-15T13:13:13;6.10;;;3.10;;
76818;SDS011;65772;51.096;17.006;2024-02-15T13:18:19;7.00;;;3.50;;
76818;SDS011;65772;51.096;17.006;2024-02-15T13:20:50;8.40;;;3.60;;
76818;SDS011;65772;51.096;17.006;2024-02-15T13:23:21;7.60;;;3.60;;
76818;SDS011;65772;51.096;17.006;2024-02-15T13:25:53;5.80;;;2.90;;
76818;SDS011;65772;51.096;17.006;2024-02-15T13:28:26;8.80;;;3.90;;
76818;SDS011;65772;51.096;17.006;2024-02-15T13:30:56;7.10;;;3.80;;
76818;SDS011;65772;51.096;17.006;2024-02-15T13:33:28;6.80;;;3.80;;
76818;SDS011;65772;51.096;17.006;2024-02-15T13:36:00;8.80;;;4.00;;
76818;SDS011;65772;51.096;17.006;2024-02-15T13:38:31;6.10;;;3.60;;
76818;SDS011;65772;51.096;17.006;2024-02-15T13:41:04;7.30;;;4.20;;
76818;SDS011;65772;51.096;17.006;2024-02-15T13:43:36;7.30;;;4.30;;
76818;SDS011;65772;51.096;17.006;2024-02-15T13:46:09;10.00;;;5.00;;
76818;SDS011;65772;51.096;17.006;2024-02-15T13:48:39;11.20;;;6.10;;
76818;SDS011;65772;51.096;17.006;2024-02-15T13:51:12;9.50;;;5.70;;
76818;SDS011;65772;51.096;17.006;2024-02-15T13:53:42;10.20;;;5.20;;
76818;SDS011;65772;51.096;17.006;2024-02-15T13:56:13;8.50;;;5.10;;
76818;SDS011;65772;51.096;17.006;2024-02-15T13:58:44;10.50;;;4.90;;
76818;SDS011;65772;51.096;17.006;2024-02-15T14:01:15;8.70;;;5.30;;
76818;SDS011;65772;51.096;17.006;2024-02-15T14:03:46;12.30;;;5.10;;
76818;SDS011;65772;51.096;17.006;2024-02-15T14:06:18;9.70;;;5.70;;
76818;SDS011;65772;51.096;17.006;2024-02-15T14:08:49;9.80;;;5.60;;
76818;SDS011;65772;51.096;17.006;2024-02-15T14:11:19;12.60;;;6.80;;
76818;SDS011;65772;51.096;17.006;2024-02-15T14:13:50;10.90;;;5.60;;
76818;SDS011;65772;51.096;17.006;2024-02-15T14:16:26;8.80;;;5.50;;
76818;SDS011;65772;51.096;17.006;2024-02-15T14:19:01;8.10;;;4.90;;
76818;SDS011;65772;51.096;17.006;2024-02-15T14:21:34;9.90;;;5.50;;
76818;SDS011;65772;51.096;17.006;2024-02-15T14:24:07;9.50;;;5.50;;
76818;SDS011;65772;51.096;17.006;2024-02-15T14:26:38;34.70;;;24.80;;
76818;SDS011;65772;51.096;17.006;2024-02-15T14:29:09;14.60;;;8.40;;
76818;SDS011;65772;51.096;17.006;2024-02-15T14:31:42;8.10;;;5.50;;
76818;SDS011;65772;51.096;17.006;2024-02-15T14:34:30;9.30;;;5.30;;
76818;SDS011;65772;51.096;17.006;2024-02-15T14:37:04;9.30;;;5.30;;
76818;SDS011;65772;51.096;17.006;2024-02-15T14:39:34;9.30;;;5.10;;
76818;SDS011;65772;51.096;17.006;2024-02-15T14:42:06;10.10;;;5.80;;
76818;SDS011;65772;51.096;17.006;2024-02-15T14:44:43;8.80;;;5.00;;
76818;SDS011;65772;51.096;17.006;2024-02-15T14:47:13;8.40;;;5.10;;
76818;SDS011;65772;51.096;17.006;2024-02-15T14:49:44;9.50;;;5.20;;
76818;SDS011;65772;51.096;17.006;2024-02-15T14:52:15;10.20;;;5.00;;
76818;SDS011;65772;51.096;17.006;2024-02-15T14:54:46;10.40;;;5.50;;
76818;SDS011;65772;51.096;17.006;2024-02-15T14:57:16;9.80;;;5.10;;
76818;SDS011;65772;51.096;17.006;2024-02-15T14:59:50;10.50;;;5.40;;
76818;SDS011;65772;51.096;17.006;2024-02-15T15:02:21;8.30;;;5.30;;
76818;SDS011;65772;51.096;17.006;2024-02-15T15:04:52;7.30;;;4.40;;
76818;SDS011;65772;51.096;17.006;2024-02-15T15:07:42;9.80;;;5.00;;
76818;SDS011;65772;51.096;17.006;2024-02-15T15:10:31;7.50;;;4.20;;